Nearby METAR Reports

 

KSJC - San Jose, California, USA
Distance from station: NØ 14km
Oppdatert: 22/01/2021 09:53
Overskyet
Overskyet
 Vind fra S
Vind: S 13 km/h
Temperatur: 9°C
Wind Chill: 7°C
Duggpunkt: 5°C
Fuktighet: 76%
Barometer: 1014.6 hPa
Clouds: Overskyet
Visibility: 16 km
Cloud details: Overskyet 2896 m
2021/01/22 08:53 KSJC 220853Z AUTO 18007KT 10SM OVC095 09/05 A2996 RMK AO2 SLP145 T00890050 58016
KNUQ - Moffett Nas/Mtn, California, USA
Distance from station: N 14km
Oppdatert: 22/01/2021 10:30
Overskyet
Overskyet
 Vind fra calm
Vind: Stille
Temperatur: 8°C
Duggpunkt: 6°C
Fuktighet: 87%
Barometer: 1014.9 hPa
Clouds: Overskyet
Visibility: 16 km
Cloud details: Overskyet 2134 m
2021/01/22 09:30 KNUQ 220930Z AUTO 00000KT 10SM OVC070 08/06 A2997 RMK AO2
 
KPAO - Palo Alto, California, USA
Distance from station: NNV 23km
Oppdatert: 22/01/2021 00:47
NOT Current
Hovedsaklig skyet
Hovedsaklig skyet
 Vind fra NV
Vind: NV 15 km/h
Temperatur: 13°C
Duggpunkt: 7°C
Fuktighet: 67%
Barometer: 1015.9 hPa
Clouds: Hovedsaklig skyet
Visibility: 16 km
Cloud details: Hovedsaklig skyet 4572 m
2021/01/21 23:47 KPAO 212347Z 32008KT 10SM BKN150 13/07 A3000
KRHV - San Jose/Reid, California, USA
Distance from station: ØNØ 19km
Oppdatert: 22/01/2021 06:55
NOT Current
Klart
Klart
 Vind fra VNV
Vind: VNV 6 km/h
Temperatur: 8°C
Duggpunkt: 4°C
Fuktighet: 76%
Barometer: 1016.3 hPa
Clouds: Klart
Visibility: 16 km
2021/01/22 05:55 KRHV 220555Z 29003KT 10SM SKC 08/04 A3001 RMK LAST
 
KOAK - Oakland, California, USA
Distance from station: NNV 50km
Oppdatert: 22/01/2021 10:11
Hovedsaklig skyet
Hovedsaklig skyet
 Vind fra S
Vind: S 13 km/h
Temperatur: 12°C
Duggpunkt: 7°C
Fuktighet: 72%
Barometer: 1014.9 hPa
Clouds: Hovedsaklig skyet
Visibility: 16 km
Cloud details: Hovedsaklig skyet 853 m
Hovedsaklig skyet 2438 m
2021/01/22 09:11 KOAK 220911Z 17007KT 10SM BKN028 BKN080 12/07 A2997 RMK AO2 T01170067
KSQL - San Carlos Airpo, California, USA
Distance from station: NV 34km
Oppdatert: 22/01/2021 10:35
Overskyet
Overskyet
 Vind fra calm
Vind: Stille
Temperatur: 8°C
Duggpunkt: 7°C
Fuktighet: 93%
Barometer: 1014.9 hPa
Clouds: Overskyet
Visibility: 16 km
Cloud details: Few Clouds 945 m
Overskyet 2286 m
2021/01/22 09:35 KSQL 220935Z AUTO 00000KT 10SM FEW031 OVC075 08/07 A2997 RMK AO2
 
KSFO - San Francisco, California, USA
Distance from station: NV 49km
Oppdatert: 22/01/2021 09:56
Hovedsaklig skyet
Hovedsaklig skyet
 Vind fra SSØ
Vind: SSØ 6 km/h
Temperatur: 11°C
Duggpunkt: 6°C
Fuktighet: 72%
Barometer: 1014.6 hPa
Clouds: Hovedsaklig skyet
Visibility: 16 km
Cloud details: Hovedsaklig skyet 2256 m
2021/01/22 08:56 KSFO 220856Z 15003KT 10SM BKN074 11/06 A2996 RMK AO2 SLP144 T01110061 56018
KE16 - San Martin, California, USA
Distance from station: ØSØ 43km
Oppdatert: 22/01/2021 10:35
Hovedsaklig skyet
Hovedsaklig skyet
 Vind fra SØ
Vind: SØ 7 km/h
Temperatur: 8°C
Wind Chill: 7°C
Duggpunkt: 5°C
Fuktighet: 82%
Barometer: 1015.6 hPa
Clouds: Hovedsaklig skyet
Visibility: 16 km
Cloud details: Delvis skyet 610 m
Hovedsaklig skyet 2743 m
2021/01/22 09:35 KE16 220935Z AUTO 13004KT 10SM SCT020 BKN090 08/05 A2999 RMK AO2
 
KWVI - Watsonville, California, USA
Distance from station: SSØ 44km
Oppdatert: 22/01/2021 09:53
Overskyet
Overskyet
 Vind fra calm
Vind: Stille
Temperatur: 10°C
Duggpunkt: 6°C
Fuktighet: 76%
Barometer: 1015.6 hPa
Clouds: Overskyet
Visibility: 16 km
Cloud details: Overskyet 640 m
2021/01/22 08:53 KWVI 220853Z AUTO 00000KT 10SM OVC021 10/06 A2999 RMK AO2 SLP156 T01000061 58013
KHAF - Half Moon Bay, California, USA
Distance from station: VNV 50km
Oppdatert: 22/01/2021 10:35
Overskyet
Overskyet
 Vind fra SØ
Vind: SØ 9 km/h
Temperatur: 10°C
Wind Chill: 9°C
Duggpunkt: 7°C
Fuktighet: 82%
Barometer: 1014.6 hPa
Clouds: Overskyet
Visibility: 11 km
Cloud details: Hovedsaklig skyet 610 m
Overskyet 2134 m
2021/01/22 09:35 KHAF 220935Z AUTO 14005KT 7SM BKN020 OVC070 10/07 A2996 RMK AO2
 
KHWD - Hayward, California, USA
Distance from station: N 44km
Oppdatert: 22/01/2021 09:54
Hovedsaklig skyet
Hovedsaklig skyet
 Vind fra S
Vind: S 6 km/h
Temperatur: 8°C
Duggpunkt: 5°C
Fuktighet: 82%
Barometer: 1014.6 hPa
Clouds: Hovedsaklig skyet
Visibility: 16 km
Cloud details: Hovedsaklig skyet 2286 m
2021/01/22 08:54 KHWD 220854Z AUTO 19003KT 10SM BKN075 08/05 A2996 RMK AO2 SLP157 T00830050 56016
KLVK - Livermore, California, USA
Distance from station: NNØ 51km
Oppdatert: 22/01/2021 09:53
Delvis skyet
Delvis skyet
 Vind fra VNV
Vind: VNV 6 km/h
Temperatur: 7°C
Duggpunkt: 4°C
Fuktighet: 81%
Barometer: 1014.2 hPa
Clouds: Delvis skyet
Visibility: 16 km
Cloud details: Delvis skyet 2743 m
2021/01/22 08:53 KLVK 220853Z AUTO 30003KT 10SM SCT090 07/04 A2995 RMK AO2 SLP138 T00720044 58015